createdAt,value
2018-07-21T00:00:47.037Z,8.37
2018-07-21T00:05:50.645Z,7.67
2018-07-21T00:10:54.813Z,9.15
2018-07-21T00:15:58.333Z,6.23
2018-07-21T00:21:01.845Z,6.75
2018-07-21T00:26:05.464Z,7.97
2018-07-21T00:31:09.983Z,7.33
2018-07-21T00:36:14.197Z,6.00
2018-07-21T00:41:17.701Z,7.58
2018-07-21T00:46:21.506Z,8.70
2018-07-21T00:51:25.117Z,7.17
2018-07-21T00:56:31.620Z,6.62
2018-07-21T01:01:37.697Z,7.40
2018-07-21T01:06:43.059Z,6.30
2018-07-21T01:11:47.432Z,7.28
2018-07-21T01:16:50.965Z,7.90
2018-07-21T01:21:55.333Z,8.17
2018-07-21T01:27:00.331Z,9.23
2018-07-21T01:32:04.594Z,6.33
2018-07-21T01:37:09.698Z,7.40
2018-07-21T01:42:15.294Z,8.25
2018-07-21T01:47:18.798Z,5.67
2018-07-21T01:52:23.699Z,7.27
2018-07-21T01:57:27.441Z,7.60
2018-07-21T02:02:31.069Z,6.50
2018-07-21T02:07:37.009Z,5.70
2018-07-21T02:12:42.303Z,7.60
2018-07-21T02:17:47.432Z,5.40
2018-07-21T02:22:51.444Z,7.60
2018-07-21T02:27:55.316Z,7.90
2018-07-21T02:33:01.435Z,8.00
2018-07-21T02:38:04.999Z,6.50
2018-07-21T02:43:08.814Z,8.17
2018-07-21T02:48:12.344Z,9.03
2018-07-21T02:53:16.023Z,7.10
2018-07-21T02:58:20.090Z,7.97
2018-07-21T03:03:24.677Z,8.15
2018-07-21T03:08:28.640Z,5.97
2018-07-21T03:13:34.026Z,7.80
2018-07-21T03:18:37.633Z,7.95
2018-07-21T03:23:41.126Z,7.80
2018-07-21T03:28:44.557Z,8.10
2018-07-21T03:33:48.062Z,7.22
2018-07-21T03:38:51.890Z,8.20
2018-07-21T03:43:55.709Z,7.60
2018-07-21T03:48:59.545Z,7.77
2018-07-21T03:54:03.098Z,8.33
2018-07-21T03:59:06.626Z,6.45
2018-07-21T04:04:10.369Z,9.47
2018-07-21T04:09:13.896Z,13.22
2018-07-21T04:14:17.539Z,9.75
2018-07-21T04:19:21.353Z,7.30
2018-07-21T04:24:24.945Z,7.92
2018-07-21T04:29:28.493Z,8.60
2018-07-21T04:34:32.192Z,8.48
2018-07-21T04:39:35.670Z,7.67
2018-07-21T04:44:39.653Z,7.92
2018-07-21T04:49:43.205Z,9.85
2018-07-21T04:54:46.677Z,9.95
2018-07-21T04:59:50.165Z,9.58
2018-07-21T05:04:55.221Z,12.43
2018-07-21T05:09:58.875Z,8.68
2018-07-21T05:15:02.414Z,8.00
2018-07-21T05:20:06.827Z,5.58
2018-07-21T05:25:10.301Z,6.97
2018-07-21T05:30:15.093Z,11.93
2018-07-21T05:35:18.881Z,7.47
2018-07-21T05:40:37.137Z,7.60
2018-07-21T05:45:40.770Z,7.35
2018-07-21T05:50:44.350Z,8.03
2018-07-21T05:55:48.016Z,7.83
2018-07-21T06:00:51.552Z,11.57
2018-07-21T06:05:55.045Z,7.30
2018-07-21T06:10:58.908Z,7.80
2018-07-21T06:16:02.905Z,7.47
2018-07-21T06:21:06.722Z,5.87
2018-07-21T06:26:10.541Z,6.33
2018-07-21T06:31:14.101Z,6.22
2018-07-21T06:36:17.585Z,7.50
2018-07-21T06:41:21.288Z,5.13
2018-07-21T06:46:25.126Z,8.13
2018-07-21T06:51:28.690Z,6.47
2018-07-21T06:56:32.153Z,5.62
2018-07-21T07:01:35.881Z,12.70
2018-07-21T07:06:39.380Z,6.70
2018-07-21T07:11:42.915Z,11.12
2018-07-21T07:16:46.478Z,7.00
2018-07-21T07:21:50.130Z,5.87
2018-07-21T07:26:53.757Z,8.43
2018-07-21T07:31:57.348Z,10.53
2018-07-21T07:37:00.884Z,9.78
2018-07-21T07:42:04.339Z,8.40
2018-07-21T07:47:08.117Z,7.65
2018-07-21T07:52:11.589Z,6.45
2018-07-21T07:57:15.132Z,7.00
2018-07-21T08:02:18.889Z,8.58
2018-07-21T08:07:23.192Z,9.40
2018-07-21T08:12:26.693Z,6.20
2018-07-21T08:17:30.229Z,9.40
2018-07-21T08:22:33.697Z,7.83
2018-07-21T08:27:37.202Z,6.60
2018-07-21T08:32:41.791Z,6.87
2018-07-21T08:37:45.304Z,8.13
2018-07-21T08:42:48.729Z,8.18
2018-07-21T08:47:52.451Z,7.25
2018-07-21T08:52:55.900Z,6.47
2018-07-21T08:57:59.566Z,6.27
2018-07-21T09:03:03.305Z,5.30
2018-07-21T09:08:06.799Z,9.97
2018-07-21T09:13:10.415Z,8.53
2018-07-21T09:18:13.810Z,8.23
2018-07-21T09:23:17.298Z,8.93
2018-07-21T09:28:20.869Z,10.30
2018-07-21T09:33:24.395Z,14.60
2018-07-21T09:38:27.907Z,12.90
2018-07-21T09:43:31.381Z,11.15
2018-07-21T09:48:35.142Z,10.15
2018-07-21T09:53:38.757Z,9.43
2018-07-21T09:58:42.228Z,13.80
2018-07-21T10:03:46.093Z,12.23
2018-07-21T10:08:49.793Z,14.80
2018-07-21T10:13:53.830Z,13.10
2018-07-21T10:18:57.604Z,10.78
2018-07-21T10:24:05.298Z,10.98
2018-07-21T10:29:12.318Z,15.98
2018-07-21T10:34:16.002Z,16.90
2018-07-21T10:39:19.560Z,30.57
2018-07-21T10:44:23.290Z,30.00
2018-07-21T10:49:26.835Z,22.70
2018-07-21T10:54:30.467Z,25.15
2018-07-21T10:59:33.984Z,18.03
2018-07-21T11:04:37.349Z,18.60
2018-07-21T11:09:41.025Z,19.77
2018-07-21T11:14:45.001Z,15.53
2018-07-21T11:19:48.654Z,16.17
2018-07-21T11:24:52.375Z,16.30
2018-07-21T11:29:55.922Z,16.52
2018-07-21T11:34:59.693Z,16.67
2018-07-21T11:40:03.427Z,12.70
2018-07-21T11:45:07.942Z,11.80
2018-07-21T11:50:11.458Z,8.30
2018-07-21T11:55:15.086Z,9.87
2018-07-21T12:00:18.591Z,11.73
2018-07-21T12:05:22.324Z,10.60
2018-07-21T12:10:25.887Z,9.70
2018-07-21T12:15:29.402Z,10.38
2018-07-21T12:20:33.258Z,8.43
2018-07-21T12:25:37.118Z,8.70
2018-07-21T12:30:40.658Z,7.17
2018-07-21T12:35:44.276Z,8.23
2018-07-21T12:40:47.741Z,10.55
2018-07-21T12:45:51.273Z,9.53
2018-07-21T12:50:54.973Z,7.85
2018-07-21T12:55:58.509Z,8.45
2018-07-21T13:01:02.338Z,8.97
2018-07-21T13:06:05.922Z,10.53
2018-07-21T13:11:09.696Z,10.18
2018-07-21T13:16:13.329Z,7.05
2018-07-21T13:21:16.829Z,7.17
2018-07-21T13:26:21.486Z,9.40
2018-07-21T13:31:25.357Z,7.67
2018-07-21T13:36:28.973Z,7.15
2018-07-21T13:41:32.538Z,6.27
2018-07-21T13:46:36.059Z,6.62
2018-07-21T13:51:39.502Z,8.18
2018-07-21T13:56:43.333Z,11.40
2018-07-21T14:01:47.092Z,12.68
2018-07-21T14:06:50.593Z,9.05
2018-07-21T14:11:54.184Z,12.43
2018-07-21T14:16:57.999Z,6.73
2018-07-21T14:22:01.849Z,6.67
2018-07-21T14:27:05.686Z,6.83
2018-07-21T14:32:09.321Z,12.97
2018-07-21T14:37:12.910Z,6.75
2018-07-21T14:42:16.652Z,7.90
2018-07-21T14:47:20.166Z,9.90
2018-07-21T14:52:23.833Z,8.88
2018-07-21T14:57:27.384Z,6.95
2018-07-21T15:02:31.359Z,6.35
2018-07-21T15:07:34.916Z,6.47
2018-07-21T15:12:38.828Z,4.73
2018-07-21T15:17:42.555Z,5.75
2018-07-21T15:22:46.183Z,4.00
2018-07-21T15:27:49.896Z,4.33
2018-07-21T15:32:53.496Z,7.58
2018-07-21T15:37:57.151Z,6.10
2018-07-21T15:43:00.730Z,4.72
2018-07-21T15:48:04.341Z,3.95
2018-07-21T15:53:07.932Z,4.55
2018-07-21T15:58:11.435Z,5.67
2018-07-21T16:03:15.560Z,3.77
2018-07-21T16:08:19.561Z,6.78
2018-07-21T16:13:23.018Z,3.37
2018-07-21T16:18:26.623Z,4.17
2018-07-21T16:23:30.226Z,3.58
2018-07-21T16:28:33.733Z,3.55
2018-07-21T16:33:37.417Z,5.10
2018-07-21T16:38:41.179Z,4.28
2018-07-21T16:43:44.814Z,4.45
2018-07-21T16:48:49.477Z,4.17
2018-07-21T16:53:53.329Z,5.63
2018-07-21T16:58:57.149Z,4.30
2018-07-21T17:04:00.642Z,4.80
2018-07-21T17:09:05.965Z,3.90
2018-07-21T17:14:10.299Z,10.20
2018-07-21T17:19:14.231Z,4.60
2018-07-21T17:24:17.710Z,4.60
2018-07-21T17:29:21.677Z,6.05
2018-07-21T17:34:25.952Z,4.37
2018-07-21T17:39:29.824Z,5.12
2018-07-21T17:44:33.721Z,6.47
2018-07-21T17:49:37.353Z,6.08
2018-07-21T17:54:41.234Z,3.80
2018-07-21T17:59:44.843Z,6.62
2018-07-21T18:04:48.909Z,4.30
2018-07-21T18:09:52.557Z,6.05
2018-07-21T18:14:56.563Z,5.13
2018-07-21T18:20:00.091Z,4.93
2018-07-21T18:25:03.565Z,6.17
2018-07-21T18:30:07.201Z,4.80
2018-07-21T18:35:10.870Z,5.67
2018-07-21T18:40:16.416Z,5.58
2018-07-21T18:45:20.390Z,4.12
2018-07-21T18:50:24.265Z,4.25
2018-07-21T18:55:27.870Z,4.08
2018-07-21T19:00:31.402Z,5.73
2018-07-21T19:05:35.195Z,7.03
2018-07-21T19:10:38.891Z,6.47
2018-07-21T19:15:47.714Z,4.78
2018-07-21T19:20:56.821Z,5.92
2018-07-21T19:26:05.723Z,5.25
2018-07-21T19:31:09.224Z,4.45
2018-07-21T19:36:12.759Z,4.20
2018-07-21T19:41:21.534Z,4.95
2018-07-21T19:46:25.054Z,4.12
2018-07-21T19:51:28.686Z,4.53
2018-07-21T19:56:32.150Z,6.75
2018-07-21T20:01:35.665Z,5.97
2018-07-21T20:06:39.230Z,5.97
2018-07-21T20:11:43.039Z,7.85
2018-07-21T20:16:46.539Z,7.20
2018-07-21T20:21:50.145Z,6.10
2018-07-21T20:26:53.750Z,5.00
2018-07-21T20:31:57.443Z,4.97
2018-07-21T20:37:01.090Z,5.80
2018-07-21T20:42:04.670Z,5.53
2018-07-21T20:47:08.573Z,4.47
2018-07-21T20:52:12.192Z,4.13
2018-07-21T20:57:15.907Z,4.80
2018-07-21T21:02:19.823Z,7.35
2018-07-21T21:07:23.327Z,6.45
2018-07-21T21:12:26.956Z,6.95
2018-07-21T21:17:30.644Z,6.22
2018-07-21T21:22:34.304Z,9.35
2018-07-21T21:27:37.769Z,5.05
2018-07-21T21:32:41.489Z,5.17
2018-07-21T21:37:45.076Z,4.40
2018-07-21T21:42:48.830Z,7.77
2018-07-21T21:47:52.998Z,5.90
2018-07-21T21:52:57.035Z,6.63
2018-07-21T21:58:00.722Z,5.97
2018-07-21T22:03:04.469Z,5.10
2018-07-21T22:08:08.027Z,5.03
2018-07-21T22:13:11.779Z,4.83
2018-07-21T22:18:15.363Z,6.23
2018-07-21T22:23:19.050Z,4.85
2018-07-21T22:28:23.210Z,6.43
2018-07-21T22:33:26.777Z,6.15
2018-07-21T22:38:30.245Z,5.47
2018-07-21T22:43:33.755Z,4.70
2018-07-21T22:48:37.433Z,4.30
2018-07-21T22:53:41.163Z,4.03
2018-07-21T22:58:44.639Z,4.70
2018-07-21T23:03:48.277Z,4.58
2018-07-21T23:08:51.890Z,5.50
2018-07-21T23:13:55.494Z,4.85
2018-07-21T23:18:58.990Z,4.30
2018-07-21T23:24:02.758Z,9.25
2018-07-21T23:29:06.568Z,5.20
2018-07-21T23:34:10.407Z,6.58
2018-07-21T23:39:14.176Z,4.63
2018-07-21T23:44:17.777Z,4.87
2018-07-21T23:49:21.786Z,4.62
2018-07-21T23:54:26.864Z,6.92
2018-07-21T23:59:31.775Z,7.28
